Esmont, VA (22937)

8:50 AM EST on February 27, 2015 (GMT -0500)
Along Langhorne Rd | Change Station
CLOSE
Current Station
Personal Weather Station
Location: Scottsville, VA
Elevation: 367 ft
Nearby Weather Stations

Elev 367 ft 37.80 °N, 78.54 °W | Updated 1 minute ago

Mostly Cloudy
Mostly Cloudy
27.0 °F
Feels Like 27 °F
N
0.0
Wind Variable Wind from SW
Gusts 1.0 mph

Today
High -- | Low -- °F
--% Chance of Precip.
Yesterday
High -- | Low -- °F
Precip. -- in
6:49 AM 6:05 PM
Waxing Gibbous, 69% visible
Pressure 30.33 in
Visibility 7.0 miles
Clouds Mostly Cloudy 4500 ft
Windchill 27 °F
Dew Point 26 °F
Humidity 96%
Rainfall 0.00 in
Snow Depth Not available.
UV 0 out of 12
Pollen 2.50 out of 12
Air Quality Not available.
Flu Activity Not available.
METAR KCHO 271253Z 03004KT 7SM BKN045 M02/M06 A3031 RMK AO2 SLP270 T10221061

More Conditions Fewer Conditions

Pressure 30.33 in
Visibility 7.0 miles
Clouds Mostly Cloudy 4500 ft
Windchill 27 °F
Dew Point 26 °F
Humidity 96%
Rainfall 0.00 in
Snow Depth Not available.
UV 0 out of 12
Pollen 2.50 out of 12
Air Quality Not available.
Flu Activity Not available.
METAR KCHO 271253Z 03004KT 7SM BKN045 M02/M06 A3031 RMK AO2 SLP270 T10221061

More Conditions Fewer Conditions

10-Day Weather Forecast

Almanac

Astronomy

Feb. 27, 2015 Rise Set
Actual Time
Civil Twilight
Nautical Twilight
Astronomical Twilight
Moon
Length of Visible Light
Length of Day
Tomorrow will be .
, % of the Moon is Illuminated

Today's Extremes

State Highs State Lows

Community

WunderPhotos

Upload Photos

1,800,672 photos uploaded!

WunderBlogs® & News

Nearby

Air Quality

  Air Quality AQ Index Pollutant
Not available.

Snow Depth

Station Depth Elevation

Earthquake Activity

City Distance Mag. Time & Date
Minimum magnitude displayed is 2.5.

Coastal Water Temperatures

Place Temperature

Nearby Weather Stations